TimeCDT,TemperatureF,Dew PointF,Humidity,Sea Level PressureIn,VisibilityMPH,Wind Direction,Wind SpeedMPH,Gust SpeedMPH,PrecipitationIn,Events,Conditions,WindDirDegrees,DateUTC
12:16 AM,68.0,62.6,83,29.95,10.0,South,10.4,-,0.12,Rain,Rain,170,2013-06-15 05:16:00
12:36 AM,68.0,62.6,83,29.93,10.0,SE,12.7,16.1,0.12,,Overcast,140,2013-06-15 05:36:00
12:56 AM,69.8,62.6,78,29.91,10.0,SSE,12.7,-,N/A,,Scattered Clouds,150,2013-06-15 05:56:00
1:18 AM,69.8,62.6,78,29.91,10.0,SE,9.2,-,N/A,,Scattered Clouds,130,2013-06-15 06:18:00
1:39 AM,69.8,62.6,78,29.91,10.0,SE,6.9,-,N/A,,Scattered Clouds,130,2013-06-15 06:39:00
1:56 AM,69.8,60.8,73,29.90,10.0,SE,9.2,-,N/A,,Scattered Clouds,140,2013-06-15 06:56:00
2:16 AM,69.8,60.8,73,29.91,10.0,SE,6.9,-,N/A,,Scattered Clouds,140,2013-06-15 07:16:00
2:37 AM,68.0,60.8,78,29.91,10.0,SE,9.2,-,N/A,,Scattered Clouds,130,2013-06-15 07:37:00
2:56 AM,69.8,62.6,78,29.89,10.0,SSE,12.7,-,N/A,,Scattered Clouds,150,2013-06-15 07:56:00
3:16 AM,69.8,62.6,78,29.88,10.0,SE,17.3,24.2,N/A,,Scattered Clouds,140,2013-06-15 08:16:00
3:37 AM,69.8,62.6,78,29.89,10.0,SE,12.7,18.4,N/A,,Scattered Clouds,130,2013-06-15 08:37:00
3:56 AM,69.8,62.6,78,29.89,10.0,ESE,8.1,-,N/A,,Scattered Clouds,110,2013-06-15 08:56:00
4:16 AM,68.0,60.8,78,29.89,10.0,ESE,8.1,-,N/A,,Scattered Clouds,110,2013-06-15 09:16:00
4:36 AM,68.0,60.8,78,29.90,10.0,ESE,9.2,-,N/A,,Scattered Clouds,120,2013-06-15 09:36:00
4:56 AM,66.2,60.8,83,29.90,10.0,East,3.5,-,N/A,,Scattered Clouds,80,2013-06-15 09:56:00
5:17 AM,66.2,60.8,83,29.89,10.0,SSE,5.8,-,N/A,,Scattered Clouds,150,2013-06-15 10:17:00
5:36 AM,66.2,60.8,83,29.89,10.0,ESE,4.6,-,N/A,,Scattered Clouds,120,2013-06-15 10:36:00
5:57 AM,68.0,60.8,78,29.89,10.0,SE,5.8,-,N/A,,Scattered Clouds,140,2013-06-15 10:57:00
6:17 AM,68.0,62.6,83,29.89,10.0,Calm,Calm,-,N/A,,Clear,0,2013-06-15 11:17:00
6:36 AM,69.8,62.6,78,29.89,10.0,SSE,10.4,-,N/A,,Clear,160,2013-06-15 11:36:00
6:56 AM,69.8,62.6,78,29.89,10.0,SSE,13.8,-,N/A,,Clear,150,2013-06-15 11:56:00
7:16 AM,69.8,62.6,78,29.89,10.0,South,13.8,-,N/A,,Clear,170,2013-06-15 12:16:00
7:37 AM,71.6,64.4,78,29.89,10.0,South,13.8,-,N/A,,Clear,170,2013-06-15 12:37:00
7:56 AM,75.2,66.2,73,29.89,10.0,South,17.3,21.9,N/A,,Clear,180,2013-06-15 12:56:00
8:16 AM,75.2,66.2,73,29.89,10.0,SSE,11.5,-,N/A,,Clear,160,2013-06-15 13:16:00
8:37 AM,77.0,68.0,74,29.90,10.0,South,6.9,-,N/A,,Clear,180,2013-06-15 13:37:00
8:56 AM,78.8,69.8,74,29.89,10.0,SSE,5.8,-,N/A,,Clear,160,2013-06-15 13:56:00
9:17 AM,80.6,66.2,61,29.90,10.0,South,8.1,-,N/A,,Clear,190,2013-06-15 14:17:00
9:36 AM,80.6,66.2,61,29.90,10.0,South,4.6,-,N/A,,Clear,190,2013-06-15 14:36:00
9:56 AM,80.6,66.2,61,29.91,10.0,South,4.6,-,N/A,,Clear,180,2013-06-15 14:56:00
10:17 AM,80.6,64.4,58,29.90,10.0,South,5.8,-,N/A,,Clear,190,2013-06-15 15:17:00
10:36 AM,82.4,64.4,54,29.91,10.0,SSW,5.8,-,N/A,,Clear,200,2013-06-15 15:36:00
10:57 AM,82.4,64.4,54,29.93,10.0,WNW,6.9,-,N/A,,Clear,300,2013-06-15 15:57:00
11:16 AM,84.2,64.4,51,29.94,10.0,West,17.3,20.7,N/A,,Clear,280,2013-06-15 16:16:00
11:36 AM,82.4,64.4,54,29.95,10.0,WNW,5.8,10.4,N/A,,Clear,300,2013-06-15 16:36:00
11:56 AM,82.4,64.4,54,29.94,10.0,NW,9.2,-,N/A,,Clear,310,2013-06-15 16:56:00
12:16 PM,82.4,64.4,54,29.94,10.0,WNW,6.9,-,N/A,,Clear,300,2013-06-15 17:16:00
12:39 PM,82.4,64.4,54,29.94,10.0,NW,6.9,-,N/A,,Clear,310,2013-06-15 17:39:00
12:58 PM,82.4,64.4,54,29.95,10.0,West,6.9,-,N/A,,Clear,280,2013-06-15 17:58:00
1:16 PM,82.4,66.2,58,29.95,10.0,West,5.8,-,N/A,,Clear,270,2013-06-15 18:16:00
1:36 PM,80.6,66.2,61,29.95,10.0,WNW,6.9,-,N/A,,Clear,290,2013-06-15 18:36:00
1:58 PM,80.6,66.2,61,29.97,10.0,West,8.1,-,N/A,,Clear,280,2013-06-15 18:58:00
2:16 PM,78.8,66.2,65,29.98,10.0,West,6.9,-,N/A,,Clear,270,2013-06-15 19:16:00
2:36 PM,75.2,66.2,73,29.99,7.0,West,18.4,24.2,N/A,Rain,Light Rain,280,2013-06-15 19:36:00
2:56 PM,73.4,66.2,78,29.99,7.0,West,12.7,17.3,0.01,Rain,Rain,270,2013-06-15 19:56:00
3:17 PM,71.6,62.6,73,29.97,10.0,West,9.2,-,0.02,Rain,Light Rain,270,2013-06-15 20:17:00
3:36 PM,73.4,64.4,73,29.95,10.0,NW,4.6,-,0.02,,Scattered Clouds,320,2013-06-15 20:36:00
3:58 PM,73.4,66.2,78,29.93,10.0,Calm,Calm,-,N/A,,Clear,0,2013-06-15 20:58:00
4:18 PM,73.4,66.2,78,29.90,10.0,NE,6.9,-,N/A,Rain,Rain,50,2013-06-15 21:18:00
4:36 PM,73.4,66.2,78,29.91,10.0,ENE,4.6,-,N/A,Rain,Light Rain,70,2013-06-15 21:36:00
4:56 PM,73.4,66.2,78,29.92,7.0,Calm,Calm,-,N/A,Rain,Light Rain,0,2013-06-15 21:56:00
5:16 PM,73.4,66.2,78,29.92,10.0,Calm,Calm,-,0.03,Rain,Light Rain,0,2013-06-15 22:16:00
5:37 PM,73.4,66.2,78,29.92,10.0,South,6.9,-,0.04,Rain,Light Rain,170,2013-06-15 22:37:00
5:56 PM,73.4,66.2,78,29.91,10.0,South,5.8,-,N/A,,Scattered Clouds,180,2013-06-15 22:56:00
6:16 PM,73.4,64.4,73,29.92,10.0,Calm,Calm,-,N/A,,Scattered Clouds,0,2013-06-15 23:16:00
6:36 PM,73.4,64.4,73,29.92,10.0,South,4.6,-,N/A,,Mostly Cloudy,190,2013-06-15 23:36:00
6:57 PM,73.4,64.4,73,29.92,10.0,SSW,3.5,-,N/A,,Mostly Cloudy,200,2013-06-15 23:57:00
7:16 PM,73.4,64.4,73,29.93,10.0,South,4.6,-,N/A,,Mostly Cloudy,190,2013-06-16 00:16:00
7:36 PM,73.4,64.4,73,29.93,10.0,South,5.8,-,N/A,,Mostly Cloudy,180,2013-06-16 00:36:00
7:58 PM,73.4,64.4,73,29.95,10.0,South,9.2,17.3,N/A,,Mostly Cloudy,180,2013-06-16 00:58:00
8:16 PM,71.6,64.4,78,29.95,10.0,South,5.8,-,N/A,,Overcast,170,2013-06-16 01:16:00
8:35 PM,71.6,64.4,78,29.95,10.0,South,4.6,-,N/A,,Overcast,170,2013-06-16 01:35:00
8:55 PM,69.8,64.4,83,29.95,10.0,Calm,Calm,-,N/A,,Overcast,0,2013-06-16 01:55:00
9:15 PM,69.8,62.6,78,29.94,10.0,Calm,Calm,-,N/A,,Scattered Clouds,0,2013-06-16 02:15:00
9:35 PM,69.8,62.6,78,29.94,10.0,Calm,Calm,-,N/A,,Scattered Clouds,0,2013-06-16 02:35:00
9:55 PM,69.8,62.6,78,29.95,10.0,East,3.5,-,N/A,,Mostly Cloudy,100,2013-06-16 02:55:00
10:15 PM,69.8,62.6,78,29.95,10.0,Calm,Calm,-,N/A,,Overcast,0,2013-06-16 03:15:00
10:35 PM,69.8,64.4,83,29.96,10.0,NE,3.5,-,N/A,,Overcast,50,2013-06-16 03:35:00
10:55 PM,69.8,64.4,83,29.96,10.0,SE,4.6,-,N/A,,Overcast,140,2013-06-16 03:55:00
11:15 PM,69.8,64.4,83,29.97,10.0,SSE,5.8,-,N/A,,Overcast,160,2013-06-16 04:15:00
11:35 PM,69.8,64.4,83,29.98,10.0,South,6.9,-,N/A,,Overcast,180,2013-06-16 04:35:00
11:55 PM,69.8,62.6,78,29.98,10.0,South,4.6,-,N/A,,Overcast,180,2013-06-16 04:55:00